createdAt,value
2022-09-03T00:03:18.518Z,14.50
2022-09-03T00:08:26.305Z,14.50
2022-09-03T00:13:34.320Z,14.50
2022-09-03T00:18:45.859Z,14.60
2022-09-03T00:23:49.598Z,14.60
2022-09-03T00:28:59.108Z,14.50
2022-09-03T00:34:09.068Z,14.20
2022-09-03T00:39:13.376Z,13.90
2022-09-03T00:44:39.739Z,13.60
2022-09-03T00:49:54.341Z,13.30
2022-09-03T00:55:03.391Z,13.10
2022-09-03T01:00:10.022Z,12.80
2022-09-03T01:05:25.652Z,12.70
2022-09-03T01:10:38.672Z,12.60
2022-09-03T01:15:52.826Z,12.60
2022-09-03T01:21:25.292Z,12.60
2022-09-03T01:26:46.642Z,12.40
2022-09-03T01:32:02.074Z,12.20
2022-09-03T01:37:13.336Z,12.10
2022-09-03T01:42:24.400Z,12.10
2022-09-03T01:47:38.008Z,12.10
2022-09-03T01:52:46.664Z,12.10
2022-09-03T01:57:56.137Z,12.50
2022-09-03T02:03:05.826Z,12.60
2022-09-03T02:08:11.658Z,12.40
2022-09-03T02:13:17.300Z,12.20
2022-09-03T02:18:26.667Z,12.10
2022-09-03T02:23:29.805Z,11.90
2022-09-03T02:28:34.037Z,11.80
2022-09-03T02:33:40.086Z,11.80
2022-09-03T02:38:44.064Z,11.70
2022-09-03T02:43:51.036Z,11.60
2022-09-03T02:48:55.965Z,11.60
2022-09-03T02:53:58.623Z,11.50
2022-09-03T02:59:01.432Z,11.30
2022-09-03T03:04:06.588Z,11.10
2022-09-03T03:09:09.311Z,11.10
2022-09-03T03:14:12.036Z,11.20
2022-09-03T03:19:16.131Z,11.00
2022-09-03T03:24:18.925Z,10.90
2022-09-03T03:29:21.732Z,10.80
2022-09-03T03:34:25.756Z,10.70
2022-09-03T03:39:28.495Z,10.70
2022-09-03T03:44:31.331Z,10.90
2022-09-03T03:49:35.315Z,11.00
2022-09-03T03:54:38.007Z,10.90
2022-09-03T03:59:40.660Z,10.90
2022-09-03T04:04:45.143Z,10.70
2022-09-03T04:09:47.832Z,10.50
2022-09-03T04:14:50.496Z,10.50
2022-09-03T04:19:54.490Z,10.50
2022-09-03T04:24:57.155Z,10.70
2022-09-03T04:29:59.815Z,10.90
2022-09-03T04:35:06.571Z,10.80
2022-09-03T04:40:09.908Z,10.70
2022-09-03T04:45:18.520Z,10.60
2022-09-03T04:50:23.601Z,10.50
2022-09-03T04:55:26.277Z,10.50
2022-09-03T05:00:29.090Z,10.60
2022-09-03T05:05:33.655Z,10.70
2022-09-03T05:10:36.368Z,10.70
2022-09-03T05:15:39.032Z,10.80
2022-09-03T05:20:43.006Z,10.90
2022-09-03T05:25:57.379Z,10.90
2022-09-03T05:31:01.165Z,11.00
2022-09-03T05:36:07.438Z,11.40
2022-09-03T05:41:12.127Z,11.60
2022-09-03T05:46:17.320Z,11.80
2022-09-03T05:51:21.513Z,12.00
2022-09-03T05:56:26.367Z,12.30
2022-09-03T06:01:30.865Z,12.50
2022-09-03T06:06:37.696Z,12.70
2022-09-03T06:11:42.811Z,12.90
2022-09-03T06:16:49.499Z,13.10
2022-09-03T06:21:53.649Z,13.30
2022-09-03T06:26:56.970Z,13.40
2022-09-03T06:32:01.898Z,13.70
2022-09-03T06:37:05.923Z,13.90
2022-09-03T06:42:09.241Z,14.20
2022-09-03T06:47:11.939Z,14.60
2022-09-03T06:52:16.005Z,14.70
2022-09-03T06:57:18.790Z,14.80
2022-09-03T07:02:22.944Z,15.00
2022-09-03T07:07:27.034Z,15.20
2022-09-03T07:12:29.796Z,15.50
2022-09-03T07:17:32.627Z,15.70
2022-09-03T07:22:36.647Z,15.70
2022-09-03T07:27:39.314Z,15.70
2022-09-03T07:32:41.990Z,15.90
2022-09-03T07:37:46.007Z,16.00
2022-09-03T07:42:53.261Z,16.20
2022-09-03T07:47:57.912Z,16.30
2022-09-03T07:53:01.916Z,16.50
2022-09-03T07:58:04.594Z,16.90
2022-09-03T08:03:08.732Z,19.70
2022-09-03T08:08:15.618Z,22.60
2022-09-03T08:13:19.300Z,25.60
2022-09-03T08:18:22.814Z,28.60
2022-09-03T08:23:27.268Z,30.30
2022-09-03T08:28:30.128Z,27.90
2022-09-03T08:33:38.784Z,29.50
2022-09-03T08:38:45.518Z,30.60
2022-09-03T08:44:07.644Z,32.60
2022-09-03T08:49:14.663Z,32.00
2022-09-03T08:54:21.507Z,32.60
2022-09-03T08:59:27.048Z,31.40
2022-09-03T09:04:47.679Z,34.90
2022-09-03T09:09:59.035Z,35.60
2022-09-03T09:15:09.877Z,35.20
2022-09-03T09:20:22.221Z,35.00
2022-09-03T09:25:27.203Z,35.70
2022-09-03T09:30:31.418Z,36.60
2022-09-03T09:35:34.167Z,39.50
2022-09-03T09:40:45.032Z,39.80
2022-09-03T09:45:49.940Z,37.60
2022-09-03T09:51:05.458Z,35.50
2022-09-03T09:56:09.795Z,36.40
2022-09-03T10:01:15.954Z,35.90
2022-09-03T10:06:36.260Z,34.40
2022-09-03T10:11:45.161Z,36.80
2022-09-03T10:16:53.858Z,40.90
2022-09-03T10:22:05.927Z,41.30
2022-09-03T10:27:12.641Z,42.60
2022-09-03T10:32:27.500Z,43.70
2022-09-03T10:37:44.422Z,43.90
2022-09-03T10:42:58.540Z,41.50
2022-09-03T10:48:26.398Z,43.70
2022-09-03T10:53:46.606Z,39.20
2022-09-03T10:59:07.915Z,37.00
2022-09-03T11:04:24.720Z,38.70
2022-09-03T11:09:36.571Z,40.20
2022-09-03T11:14:45.194Z,39.10
2022-09-03T11:19:55.627Z,39.10
2022-09-03T11:25:01.669Z,39.30
2022-09-03T11:30:09.637Z,39.10
2022-09-03T11:35:17.180Z,36.90
2022-09-03T11:40:21.823Z,37.60
2022-09-03T11:45:37.718Z,33.20
2022-09-03T11:50:40.502Z,36.10
2022-09-03T11:55:54.308Z,33.80
2022-09-03T12:01:01.321Z,36.60
2022-09-03T12:06:29.383Z,42.00
2022-09-03T12:11:44.092Z,45.10
2022-09-03T12:17:05.674Z,46.60
2022-09-03T12:22:14.980Z,44.70
2022-09-03T12:27:24.210Z,41.60
2022-09-03T12:32:32.190Z,42.30
2022-09-03T12:48:40.338Z,38.10
2022-09-03T12:53:43.382Z,36.00
2022-09-03T12:58:53.608Z,37.50
2022-09-03T13:04:04.220Z,33.60
2022-09-03T13:09:09.925Z,31.50
2022-09-03T13:14:14.698Z,35.20
2022-09-03T13:19:31.602Z,35.20
2022-09-03T13:24:56.869Z,31.60
2022-09-03T13:30:06.924Z,29.30
2022-09-03T13:35:16.797Z,32.50
2022-09-03T13:40:27.363Z,35.40
2022-09-03T13:45:36.811Z,37.60
2022-09-03T13:50:46.768Z,33.90
2022-09-03T13:55:54.247Z,30.70
2022-09-03T14:01:13.838Z,35.50
2022-09-03T14:06:35.213Z,39.50
2022-09-03T14:11:55.605Z,41.80
2022-09-03T14:17:03.466Z,37.00
2022-09-03T14:22:12.151Z,32.40
2022-09-03T14:27:23.557Z,32.40
2022-09-03T14:32:42.576Z,34.40
2022-09-03T14:38:16.681Z,33.10
2022-09-03T14:43:38.266Z,30.20
2022-09-03T14:49:05.296Z,29.50
2022-09-03T14:54:28.392Z,28.50
2022-09-03T14:59:55.196Z,27.40
2022-09-03T15:05:12.167Z,29.40
2022-09-03T15:10:25.664Z,28.80
2022-09-03T15:15:35.237Z,28.20
2022-09-03T15:20:49.950Z,29.20
2022-09-03T15:26:30.345Z,30.40
2022-09-03T15:31:46.646Z,30.40
2022-09-03T15:36:53.816Z,33.60
2022-09-03T17:22:22.646Z,22.10
2022-09-03T17:27:50.603Z,21.50
2022-09-03T17:33:34.956Z,21.20
2022-09-03T17:39:02.360Z,21.10
2022-09-03T17:44:16.639Z,21.10
2022-09-03T17:49:26.557Z,21.20
2022-09-03T17:54:41.102Z,20.90
2022-09-03T17:59:49.103Z,20.80
2022-09-03T18:04:57.117Z,20.80
2022-09-03T18:10:19.032Z,20.60
2022-09-03T18:15:27.498Z,20.30
2022-09-03T18:21:08.467Z,20.00
2022-09-03T18:26:45.286Z,20.00
2022-09-03T18:32:05.778Z,19.90
2022-09-03T18:37:27.408Z,19.80
2022-09-03T18:42:59.115Z,19.70
2022-09-03T18:48:29.944Z,19.70
2022-09-03T18:53:57.352Z,19.50
2022-09-03T18:59:33.620Z,19.40
2022-09-03T19:05:09.621Z,19.40
2022-09-03T19:10:39.820Z,19.40
2022-09-03T19:16:10.328Z,19.40
2022-09-03T19:21:41.046Z,19.50
2022-09-03T19:27:23.572Z,19.50
2022-09-03T19:32:59.112Z,19.20
2022-09-03T19:38:26.886Z,19.20
2022-09-03T19:43:56.826Z,19.20
2022-09-03T19:49:35.166Z,19.10
2022-09-03T19:54:57.344Z,19.10
2022-09-03T20:00:22.401Z,19.10
2022-09-03T20:05:56.184Z,18.90
2022-09-03T20:11:00.026Z,19.00
2022-09-03T20:16:08.361Z,18.90
2022-09-03T20:21:20.232Z,18.80
2022-09-03T20:26:36.078Z,18.80
2022-09-03T20:31:48.451Z,18.90
2022-09-03T20:37:01.778Z,18.80
2022-09-03T20:42:27.325Z,18.60
2022-09-03T20:48:00.011Z,18.60
2022-09-03T20:53:14.601Z,18.70
2022-09-03T20:58:25.300Z,18.60
2022-09-03T21:03:33.121Z,18.60
2022-09-03T21:08:52.946Z,18.50
2022-09-03T21:14:03.045Z,18.40
2022-09-03T21:19:11.885Z,18.40
2022-09-03T21:24:20.255Z,18.30
2022-09-03T21:29:26.504Z,18.10
2022-09-03T21:34:31.792Z,18.00
2022-09-03T21:39:43.008Z,17.90
2022-09-03T21:44:53.807Z,17.70
2022-09-03T21:50:03.849Z,17.60
2022-09-03T21:55:20.479Z,17.40
2022-09-03T22:00:32.434Z,17.40
2022-09-03T22:05:48.130Z,17.40
2022-09-03T22:11:00.197Z,17.30
2022-09-03T22:16:13.712Z,17.10
2022-09-03T22:21:23.551Z,17.00
2022-09-03T22:26:45.634Z,16.90
2022-09-03T22:31:57.597Z,16.90
2022-09-03T22:37:06.833Z,17.00
2022-09-03T22:42:32.952Z,16.90
2022-09-03T22:47:44.193Z,16.70
2022-09-03T22:52:56.141Z,16.60
2022-09-03T22:58:03.059Z,16.50
2022-09-03T23:03:11.005Z,16.30
2022-09-03T23:08:22.034Z,16.20
2022-09-03T23:13:32.878Z,16.10
2022-09-03T23:18:37.015Z,16.00
2022-09-03T23:23:43.341Z,16.10
2022-09-03T23:28:51.396Z,16.20
2022-09-03T23:33:56.036Z,16.30
2022-09-03T23:39:06.332Z,16.30
2022-09-03T23:44:36.035Z,16.50
2022-09-03T23:49:47.507Z,16.60
2022-09-03T23:54:55.162Z,16.40
